sensor_id;sensor_type;location;lat;lon;timestamp;P1;durP1;ratioP1;P2;durP2;ratioP2
84163;SDS011;74288;46.872;7.802;2024-03-22T00:01:44;4.35;;;1.90;;
84163;SDS011;74288;46.872;7.802;2024-03-22T00:04:10;3.57;;;1.70;;
84163;SDS011;74288;46.872;7.802;2024-03-22T00:06:36;5.07;;;1.85;;
84163;SDS011;74288;46.872;7.802;2024-03-22T00:09:02;5.15;;;1.83;;
84163;SDS011;74288;46.872;7.802;2024-03-22T00:11:28;4.25;;;1.85;;
84163;SDS011;74288;46.872;7.802;2024-03-22T00:13:54;4.57;;;1.80;;
84163;SDS011;74288;46.872;7.802;2024-03-22T00:16:20;5.40;;;1.80;;
84163;SDS011;74288;46.872;7.802;2024-03-22T00:18:46;3.90;;;1.60;;
84163;SDS011;74288;46.872;7.802;2024-03-22T00:21:12;5.53;;;1.65;;
84163;SDS011;74288;46.872;7.802;2024-03-22T00:23:38;4.25;;;1.73;;
84163;SDS011;74288;46.872;7.802;2024-03-22T00:26:04;4.38;;;1.50;;
84163;SDS011;74288;46.872;7.802;2024-03-22T00:28:30;3.80;;;1.70;;
84163;SDS011;74288;46.872;7.802;2024-03-22T00:30:56;4.47;;;1.70;;
84163;SDS011;74288;46.872;7.802;2024-03-22T00:33:21;5.33;;;1.73;;
84163;SDS011;74288;46.872;7.802;2024-03-22T00:35:47;4.85;;;1.80;;
84163;SDS011;74288;46.872;7.802;2024-03-22T00:38:13;4.05;;;1.80;;
84163;SDS011;74288;46.872;7.802;2024-03-22T00:40:39;5.27;;;1.80;;
84163;SDS011;74288;46.872;7.802;2024-03-22T00:43:06;4.70;;;2.00;;
84163;SDS011;74288;46.872;7.802;2024-03-22T00:45:32;4.72;;;1.63;;
84163;SDS011;74288;46.872;7.802;2024-03-22T00:47:58;4.63;;;1.75;;
84163;SDS011;74288;46.872;7.802;2024-03-22T00:50:24;3.80;;;1.60;;
84163;SDS011;74288;46.872;7.802;2024-03-22T00:52:50;4.38;;;1.77;;
84163;SDS011;74288;46.872;7.802;2024-03-22T00:55:17;3.95;;;1.67;;
84163;SDS011;74288;46.872;7.802;2024-03-22T00:57:43;4.22;;;1.63;;
84163;SDS011;74288;46.872;7.802;2024-03-22T01:00:09;4.53;;;1.93;;
84163;SDS011;74288;46.872;7.802;2024-03-22T01:02:35;4.80;;;1.90;;
84163;SDS011;74288;46.872;7.802;2024-03-22T01:05:01;3.72;;;1.80;;
84163;SDS011;74288;46.872;7.802;2024-03-22T01:07:27;4.43;;;1.70;;
84163;SDS011;74288;46.872;7.802;2024-03-22T01:09:53;5.10;;;1.87;;
84163;SDS011;74288;46.872;7.802;2024-03-22T01:12:19;4.10;;;1.50;;
84163;SDS011;74288;46.872;7.802;2024-03-22T01:14:45;5.15;;;1.90;;
84163;SDS011;74288;46.872;7.802;2024-03-22T01:17:11;4.27;;;1.63;;
84163;SDS011;74288;46.872;7.802;2024-03-22T01:19:37;5.40;;;1.65;;
84163;SDS011;74288;46.872;7.802;2024-03-22T01:22:03;4.75;;;1.70;;
84163;SDS011;74288;46.872;7.802;2024-03-22T01:24:29;5.22;;;1.70;;
84163;SDS011;74288;46.872;7.802;2024-03-22T01:26:55;4.87;;;1.83;;
84163;SDS011;74288;46.872;7.802;2024-03-22T01:29:21;5.43;;;1.80;;
84163;SDS011;74288;46.872;7.802;2024-03-22T01:31:47;5.20;;;1.95;;
84163;SDS011;74288;46.872;7.802;2024-03-22T01:34:13;4.10;;;1.70;;
84163;SDS011;74288;46.872;7.802;2024-03-22T01:36:39;8.13;;;1.90;;
84163;SDS011;74288;46.872;7.802;2024-03-22T01:39:05;4.00;;;1.58;;
84163;SDS011;74288;46.872;7.802;2024-03-22T01:41:32;4.20;;;1.80;;
84163;SDS011;74288;46.872;7.802;2024-03-22T01:43:58;4.10;;;1.63;;
84163;SDS011;74288;46.872;7.802;2024-03-22T01:46:24;3.55;;;1.50;;
84163;SDS011;74288;46.872;7.802;2024-03-22T01:48:50;5.73;;;1.83;;
84163;SDS011;74288;46.872;7.802;2024-03-22T01:51:17;5.05;;;1.60;;
84163;SDS011;74288;46.872;7.802;2024-03-22T01:53:43;4.88;;;1.50;;
84163;SDS011;74288;46.872;7.802;2024-03-22T01:56:09;3.95;;;1.60;;
84163;SDS011;74288;46.872;7.802;2024-03-22T01:58:36;4.63;;;1.70;;
84163;SDS011;74288;46.872;7.802;2024-03-22T02:01:02;3.97;;;1.50;;
84163;SDS011;74288;46.872;7.802;2024-03-22T02:03:28;4.40;;;1.60;;
84163;SDS011;74288;46.872;7.802;2024-03-22T02:05:54;3.75;;;1.55;;
84163;SDS011;74288;46.872;7.802;2024-03-22T02:08:20;4.30;;;1.67;;
84163;SDS011;74288;46.872;7.802;2024-03-22T02:10:46;4.90;;;1.60;;
84163;SDS011;74288;46.872;7.802;2024-03-22T02:13:12;4.45;;;1.48;;
84163;SDS011;74288;46.872;7.802;2024-03-22T02:15:38;5.13;;;1.70;;
84163;SDS011;74288;46.872;7.802;2024-03-22T02:18:04;4.88;;;1.75;;
84163;SDS011;74288;46.872;7.802;2024-03-22T02:20:30;4.18;;;1.70;;
84163;SDS011;74288;46.872;7.802;2024-03-22T02:22:56;4.43;;;1.80;;
84163;SDS011;74288;46.872;7.802;2024-03-22T02:25:22;4.95;;;1.67;;
84163;SDS011;74288;46.872;7.802;2024-03-22T02:27:48;4.32;;;1.80;;
84163;SDS011;74288;46.872;7.802;2024-03-22T02:30:15;4.32;;;1.50;;
84163;SDS011;74288;46.872;7.802;2024-03-22T02:32:41;3.80;;;1.70;;
84163;SDS011;74288;46.872;7.802;2024-03-22T02:35:07;3.97;;;1.60;;
84163;SDS011;74288;46.872;7.802;2024-03-22T02:37:33;5.05;;;1.80;;
84163;SDS011;74288;46.872;7.802;2024-03-22T02:39:59;4.22;;;1.48;;
84163;SDS011;74288;46.872;7.802;2024-03-22T02:42:25;5.10;;;1.60;;
84163;SDS011;74288;46.872;7.802;2024-03-22T02:44:52;5.47;;;1.77;;
84163;SDS011;74288;46.872;7.802;2024-03-22T02:47:18;4.45;;;1.48;;
84163;SDS011;74288;46.872;7.802;2024-03-22T02:49:44;5.57;;;1.80;;
84163;SDS011;74288;46.872;7.802;2024-03-22T02:52:10;3.70;;;1.63;;
84163;SDS011;74288;46.872;7.802;2024-03-22T02:54:36;4.00;;;1.70;;
84163;SDS011;74288;46.872;7.802;2024-03-22T02:57:02;4.10;;;1.70;;
84163;SDS011;74288;46.872;7.802;2024-03-22T02:59:28;5.47;;;1.73;;
84163;SDS011;74288;46.872;7.802;2024-03-22T03:01:54;5.33;;;1.97;;
84163;SDS011;74288;46.872;7.802;2024-03-22T03:04:20;3.95;;;1.70;;
84163;SDS011;74288;46.872;7.802;2024-03-22T03:06:46;6.43;;;1.80;;
84163;SDS011;74288;46.872;7.802;2024-03-22T03:09:12;5.10;;;1.80;;
84163;SDS011;74288;46.872;7.802;2024-03-22T03:11:39;4.40;;;1.63;;
84163;SDS011;74288;46.872;7.802;2024-03-22T03:14:05;4.38;;;1.60;;
84163;SDS011;74288;46.872;7.802;2024-03-22T03:16:31;6.22;;;1.80;;
84163;SDS011;74288;46.872;7.802;2024-03-22T03:18:57;4.32;;;1.80;;
84163;SDS011;74288;46.872;7.802;2024-03-22T03:21:23;4.32;;;1.52;;
84163;SDS011;74288;46.872;7.802;2024-03-22T03:23:49;4.17;;;1.70;;
84163;SDS011;74288;46.872;7.802;2024-03-22T03:26:15;4.15;;;1.55;;
84163;SDS011;74288;46.872;7.802;2024-03-22T03:28:41;4.55;;;1.70;;
84163;SDS011;74288;46.872;7.802;2024-03-22T03:31:07;4.70;;;1.75;;
84163;SDS011;74288;46.872;7.802;2024-03-22T03:33:33;3.70;;;1.70;;
84163;SDS011;74288;46.872;7.802;2024-03-22T03:35:59;4.35;;;1.58;;
84163;SDS011;74288;46.872;7.802;2024-03-22T03:38:25;4.10;;;1.70;;
84163;SDS011;74288;46.872;7.802;2024-03-22T03:40:51;5.10;;;1.88;;
84163;SDS011;74288;46.872;7.802;2024-03-22T03:43:17;4.68;;;1.70;;
84163;SDS011;74288;46.872;7.802;2024-03-22T03:45:43;6.63;;;1.67;;
84163;SDS011;74288;46.872;7.802;2024-03-22T03:48:08;5.03;;;1.80;;
84163;SDS011;74288;46.872;7.802;2024-03-22T03:50:34;5.30;;;1.63;;
84163;SDS011;74288;46.872;7.802;2024-03-22T03:53:00;5.32;;;1.70;;
84163;SDS011;74288;46.872;7.802;2024-03-22T03:55:26;5.28;;;1.90;;
84163;SDS011;74288;46.872;7.802;2024-03-22T03:57:52;4.07;;;1.80;;
84163;SDS011;74288;46.872;7.802;2024-03-22T04:00:19;3.47;;;1.55;;
84163;SDS011;74288;46.872;7.802;2024-03-22T04:02:45;5.30;;;1.70;;
84163;SDS011;74288;46.872;7.802;2024-03-22T04:05:11;4.75;;;1.90;;
84163;SDS011;74288;46.872;7.802;2024-03-22T04:07:37;4.00;;;1.70;;
84163;SDS011;74288;46.872;7.802;2024-03-22T04:10:04;4.28;;;1.75;;
84163;SDS011;74288;46.872;7.802;2024-03-22T04:12:31;5.75;;;1.90;;
84163;SDS011;74288;46.872;7.802;2024-03-22T04:14:56;5.40;;;1.70;;
84163;SDS011;74288;46.872;7.802;2024-03-22T04:17:22;4.37;;;1.70;;
84163;SDS011;74288;46.872;7.802;2024-03-22T04:19:51;5.80;;;1.90;;
84163;SDS011;74288;46.872;7.802;2024-03-22T04:22:18;4.75;;;1.70;;
84163;SDS011;74288;46.872;7.802;2024-03-22T04:24:44;4.05;;;1.60;;
84163;SDS011;74288;46.872;7.802;2024-03-22T04:27:10;5.07;;;1.83;;
84163;SDS011;74288;46.872;7.802;2024-03-22T04:29:36;3.95;;;1.42;;
84163;SDS011;74288;46.872;7.802;2024-03-22T04:32:02;4.38;;;1.58;;
84163;SDS011;74288;46.872;7.802;2024-03-22T04:34:28;4.55;;;1.70;;
84163;SDS011;74288;46.872;7.802;2024-03-22T04:36:54;4.63;;;1.80;;
84163;SDS011;74288;46.872;7.802;2024-03-22T04:39:20;5.70;;;2.35;;
84163;SDS011;74288;46.872;7.802;2024-03-22T04:41:46;5.03;;;2.10;;
84163;SDS011;74288;46.872;7.802;2024-03-22T04:44:11;6.70;;;1.88;;
84163;SDS011;74288;46.872;7.802;2024-03-22T04:46:37;3.00;;;1.40;;
84163;SDS011;74288;46.872;7.802;2024-03-22T04:49:03;4.60;;;1.85;;
84163;SDS011;74288;46.872;7.802;2024-03-22T04:51:29;5.03;;;1.63;;
84163;SDS011;74288;46.872;7.802;2024-03-22T04:53:55;3.17;;;1.33;;
84163;SDS011;74288;46.872;7.802;2024-03-22T04:56:21;8.68;;;1.73;;
84163;SDS011;74288;46.872;7.802;2024-03-22T04:58:47;5.20;;;1.80;;
84163;SDS011;74288;46.872;7.802;2024-03-22T05:01:13;6.15;;;1.80;;
84163;SDS011;74288;46.872;7.802;2024-03-22T05:03:39;4.93;;;1.80;;
84163;SDS011;74288;46.872;7.802;2024-03-22T05:06:06;6.55;;;1.83;;
84163;SDS011;74288;46.872;7.802;2024-03-22T05:08:32;5.25;;;1.80;;
84163;SDS011;74288;46.872;7.802;2024-03-22T05:10:58;6.47;;;1.98;;
84163;SDS011;74288;46.872;7.802;2024-03-22T05:13:24;5.70;;;1.80;;
84163;SDS011;74288;46.872;7.802;2024-03-22T05:15:50;4.28;;;1.90;;
84163;SDS011;74288;46.872;7.802;2024-03-22T05:18:16;5.20;;;2.10;;
84163;SDS011;74288;46.872;7.802;2024-03-22T05:20:42;6.60;;;1.92;;
84163;SDS011;74288;46.872;7.802;2024-03-22T05:23:08;5.17;;;2.00;;
84163;SDS011;74288;46.872;7.802;2024-03-22T05:25:34;5.00;;;2.10;;
84163;SDS011;74288;46.872;7.802;2024-03-22T05:28:00;4.32;;;2.00;;
84163;SDS011;74288;46.872;7.802;2024-03-22T05:30:26;5.30;;;1.80;;
84163;SDS011;74288;46.872;7.802;2024-03-22T05:32:52;5.40;;;2.30;;
84163;SDS011;74288;46.872;7.802;2024-03-22T05:35:18;4.15;;;1.75;;
84163;SDS011;74288;46.872;7.802;2024-03-22T05:37:44;4.53;;;1.95;;
84163;SDS011;74288;46.872;7.802;2024-03-22T05:40:11;5.15;;;2.10;;
84163;SDS011;74288;46.872;7.802;2024-03-22T05:42:37;5.50;;;2.33;;
84163;SDS011;74288;46.872;7.802;2024-03-22T05:45:03;7.05;;;2.70;;
84163;SDS011;74288;46.872;7.802;2024-03-22T05:47:29;5.45;;;2.45;;
84163;SDS011;74288;46.872;7.802;2024-03-22T05:49:56;6.60;;;2.60;;
84163;SDS011;74288;46.872;7.802;2024-03-22T05:52:22;7.47;;;1.97;;
84163;SDS011;74288;46.872;7.802;2024-03-22T05:54:48;7.45;;;2.45;;
84163;SDS011;74288;46.872;7.802;2024-03-22T05:57:14;5.55;;;2.10;;
84163;SDS011;74288;46.872;7.802;2024-03-22T05:59:40;4.57;;;2.10;;
84163;SDS011;74288;46.872;7.802;2024-03-22T06:02:07;7.80;;;2.25;;
84163;SDS011;74288;46.872;7.802;2024-03-22T06:04:33;5.78;;;2.15;;
84163;SDS011;74288;46.872;7.802;2024-03-22T06:06:59;6.22;;;2.30;;
84163;SDS011;74288;46.872;7.802;2024-03-22T06:09:28;4.78;;;2.10;;
84163;SDS011;74288;46.872;7.802;2024-03-22T06:12:10;5.80;;;2.33;;
84163;SDS011;74288;46.872;7.802;2024-03-22T06:14:36;5.70;;;2.93;;
84163;SDS011;74288;46.872;7.802;2024-03-22T06:17:05;6.15;;;2.80;;
84163;SDS011;74288;46.872;7.802;2024-03-22T06:19:31;6.60;;;3.17;;
84163;SDS011;74288;46.872;7.802;2024-03-22T06:21:57;8.27;;;3.55;;
84163;SDS011;74288;46.872;7.802;2024-03-22T06:24:23;7.93;;;3.30;;
84163;SDS011;74288;46.872;7.802;2024-03-22T06:26:49;10.07;;;3.40;;
84163;SDS011;74288;46.872;7.802;2024-03-22T06:29:15;5.38;;;2.47;;
84163;SDS011;74288;46.872;7.802;2024-03-22T06:31:42;6.43;;;2.97;;
84163;SDS011;74288;46.872;7.802;2024-03-22T06:34:08;6.13;;;2.53;;
84163;SDS011;74288;46.872;7.802;2024-03-22T06:36:34;7.68;;;2.63;;
84163;SDS011;74288;46.872;7.802;2024-03-22T06:39:00;7.37;;;3.20;;
84163;SDS011;74288;46.872;7.802;2024-03-22T06:41:27;15.05;;;3.50;;
84163;SDS011;74288;46.872;7.802;2024-03-22T06:43:53;9.02;;;3.70;;
84163;SDS011;74288;46.872;7.802;2024-03-22T06:46:19;7.43;;;2.83;;
84163;SDS011;74288;46.872;7.802;2024-03-22T06:48:46;5.95;;;2.20;;
84163;SDS011;74288;46.872;7.802;2024-03-22T06:51:12;7.78;;;3.15;;
84163;SDS011;74288;46.872;7.802;2024-03-22T06:53:38;7.57;;;3.15;;
84163;SDS011;74288;46.872;7.802;2024-03-22T06:56:04;6.88;;;2.78;;
84163;SDS011;74288;46.872;7.802;2024-03-22T06:58:30;10.07;;;3.20;;
84163;SDS011;74288;46.872;7.802;2024-03-22T07:00:56;6.65;;;2.85;;
84163;SDS011;74288;46.872;7.802;2024-03-22T07:03:22;7.72;;;2.80;;
84163;SDS011;74288;46.872;7.802;2024-03-22T07:05:48;6.25;;;2.83;;
84163;SDS011;74288;46.872;7.802;2024-03-22T07:08:14;7.10;;;2.63;;
84163;SDS011;74288;46.872;7.802;2024-03-22T07:10:40;5.80;;;2.80;;
84163;SDS011;74288;46.872;7.802;2024-03-22T07:13:06;5.15;;;2.33;;
84163;SDS011;74288;46.872;7.802;2024-03-22T07:15:32;5.45;;;2.42;;
84163;SDS011;74288;46.872;7.802;2024-03-22T07:17:59;8.32;;;3.35;;
84163;SDS011;74288;46.872;7.802;2024-03-22T07:20:25;7.23;;;3.47;;
84163;SDS011;74288;46.872;7.802;2024-03-22T07:22:51;4.60;;;2.03;;
84163;SDS011;74288;46.872;7.802;2024-03-22T07:25:18;6.88;;;2.15;;
84163;SDS011;74288;46.872;7.802;2024-03-22T07:27:44;6.60;;;2.38;;
84163;SDS011;74288;46.872;7.802;2024-03-22T07:30:11;6.72;;;2.47;;
84163;SDS011;74288;46.872;7.802;2024-03-22T07:32:37;6.50;;;2.17;;
84163;SDS011;74288;46.872;7.802;2024-03-22T07:35:03;5.72;;;2.05;;
84163;SDS011;74288;46.872;7.802;2024-03-22T07:37:29;5.72;;;1.70;;
84163;SDS011;74288;46.872;7.802;2024-03-22T07:39:55;4.97;;;1.80;;
84163;SDS011;74288;46.872;7.802;2024-03-22T07:42:21;4.90;;;2.10;;
84163;SDS011;74288;46.872;7.802;2024-03-22T07:44:47;5.93;;;2.20;;
84163;SDS011;74288;46.872;7.802;2024-03-22T07:47:13;6.53;;;2.40;;
84163;SDS011;74288;46.872;7.802;2024-03-22T07:49:39;7.57;;;2.40;;
84163;SDS011;74288;46.872;7.802;2024-03-22T07:52:05;6.87;;;2.40;;
84163;SDS011;74288;46.872;7.802;2024-03-22T07:54:31;7.70;;;2.60;;
84163;SDS011;74288;46.872;7.802;2024-03-22T07:56:57;6.40;;;2.60;;
84163;SDS011;74288;46.872;7.802;2024-03-22T07:59:23;8.13;;;2.85;;
84163;SDS011;74288;46.872;7.802;2024-03-22T08:01:49;7.78;;;2.75;;
84163;SDS011;74288;46.872;7.802;2024-03-22T08:04:15;5.60;;;2.43;;
84163;SDS011;74288;46.872;7.802;2024-03-22T08:06:41;5.32;;;2.47;;
84163;SDS011;74288;46.872;7.802;2024-03-22T08:09:07;7.70;;;3.42;;
84163;SDS011;74288;46.872;7.802;2024-03-22T08:11:34;8.85;;;3.58;;
84163;SDS011;74288;46.872;7.802;2024-03-22T08:14:00;7.23;;;3.00;;
84163;SDS011;74288;46.872;7.802;2024-03-22T08:16:29;8.35;;;3.05;;
84163;SDS011;74288;46.872;7.802;2024-03-22T08:18:55;7.55;;;2.58;;
84163;SDS011;74288;46.872;7.802;2024-03-22T08:21:22;6.85;;;2.30;;
84163;SDS011;74288;46.872;7.802;2024-03-22T08:23:48;6.53;;;2.42;;
84163;SDS011;74288;46.872;7.802;2024-03-22T08:26:14;6.27;;;2.20;;
84163;SDS011;74288;46.872;7.802;2024-03-22T08:28:40;6.53;;;2.30;;
84163;SDS011;74288;46.872;7.802;2024-03-22T08:31:06;4.72;;;2.20;;
84163;SDS011;74288;46.872;7.802;2024-03-22T08:33:32;5.30;;;2.05;;
84163;SDS011;74288;46.872;7.802;2024-03-22T08:35:58;6.85;;;2.00;;
84163;SDS011;74288;46.872;7.802;2024-03-22T08:38:24;4.53;;;1.92;;
84163;SDS011;74288;46.872;7.802;2024-03-22T08:40:50;6.85;;;2.17;;
84163;SDS011;74288;46.872;7.802;2024-03-22T08:43:16;6.22;;;2.00;;
84163;SDS011;74288;46.872;7.802;2024-03-22T08:45:42;4.97;;;1.90;;
84163;SDS011;74288;46.872;7.802;2024-03-22T08:48:08;5.32;;;2.10;;
84163;SDS011;74288;46.872;7.802;2024-03-22T08:50:34;4.07;;;1.95;;
84163;SDS011;74288;46.872;7.802;2024-03-22T08:53:00;5.47;;;2.20;;
84163;SDS011;74288;46.872;7.802;2024-03-22T08:55:31;6.38;;;2.10;;
84163;SDS011;74288;46.872;7.802;2024-03-22T08:57:56;5.25;;;1.92;;
84163;SDS011;74288;46.872;7.802;2024-03-22T09:00:22;5.88;;;2.10;;
84163;SDS011;74288;46.872;7.802;2024-03-22T09:02:48;5.57;;;2.00;;
84163;SDS011;74288;46.872;7.802;2024-03-22T09:05:14;8.27;;;2.08;;
84163;SDS011;74288;46.872;7.802;2024-03-22T09:07:40;4.38;;;1.73;;
84163;SDS011;74288;46.872;7.802;2024-03-22T09:10:06;6.03;;;2.00;;
84163;SDS011;74288;46.872;7.802;2024-03-22T09:12:32;4.27;;;1.60;;
84163;SDS011;74288;46.872;7.802;2024-03-22T09:14:58;4.95;;;1.90;;
84163;SDS011;74288;46.872;7.802;2024-03-22T09:17:25;5.78;;;2.00;;
84163;SDS011;74288;46.872;7.802;2024-03-22T09:19:51;5.97;;;1.90;;
84163;SDS011;74288;46.872;7.802;2024-03-22T09:22:17;4.87;;;2.00;;
84163;SDS011;74288;46.872;7.802;2024-03-22T09:24:43;6.55;;;1.98;;
84163;SDS011;74288;46.872;7.802;2024-03-22T09:27:09;4.75;;;2.00;;
84163;SDS011;74288;46.872;7.802;2024-03-22T09:29:38;4.43;;;1.98;;
84163;SDS011;74288;46.872;7.802;2024-03-22T09:32:04;4.60;;;1.90;;
84163;SDS011;74288;46.872;7.802;2024-03-22T09:34:30;4.97;;;1.95;;
84163;SDS011;74288;46.872;7.802;2024-03-22T09:36:56;6.18;;;1.90;;
84163;SDS011;74288;46.872;7.802;2024-03-22T09:39:22;5.30;;;1.50;;
84163;SDS011;74288;46.872;7.802;2024-03-22T09:41:48;3.70;;;1.70;;
84163;SDS011;74288;46.872;7.802;2024-03-22T09:44:17;3.55;;;1.70;;
84163;SDS011;74288;46.872;7.802;2024-03-22T09:46:44;5.68;;;1.80;;
84163;SDS011;74288;46.872;7.802;2024-03-22T09:49:10;4.57;;;1.73;;
84163;SDS011;74288;46.872;7.802;2024-03-22T09:51:37;7.50;;;2.85;;
84163;SDS011;74288;46.872;7.802;2024-03-22T09:54:03;17.30;;;7.27;;
84163;SDS011;74288;46.872;7.802;2024-03-22T09:56:30;23.08;;;9.20;;
84163;SDS011;74288;46.872;7.802;2024-03-22T09:58:56;14.57;;;5.97;;
84163;SDS011;74288;46.872;7.802;2024-03-22T10:01:23;10.27;;;4.50;;
84163;SDS011;74288;46.872;7.802;2024-03-22T10:03:50;6.85;;;3.00;;
84163;SDS011;74288;46.872;7.802;2024-03-22T10:06:16;6.07;;;2.10;;
84163;SDS011;74288;46.872;7.802;2024-03-22T10:08:43;4.53;;;1.80;;
84163;SDS011;74288;46.872;7.802;2024-03-22T10:11:10;3.95;;;1.50;;
84163;SDS011;74288;46.872;7.802;2024-03-22T10:13:35;5.13;;;1.40;;
84163;SDS011;74288;46.872;7.802;2024-03-22T10:16:01;2.50;;;1.10;;
84163;SDS011;74288;46.872;7.802;2024-03-22T10:18:27;3.53;;;1.40;;
84163;SDS011;74288;46.872;7.802;2024-03-22T10:21:17;2.45;;;1.10;;
84163;SDS011;74288;46.872;7.802;2024-03-22T10:23:40;7.47;;;2.95;;
84163;SDS011;74288;46.872;7.802;2024-03-22T10:26:06;4.93;;;1.92;;
84163;SDS011;74288;46.872;7.802;2024-03-22T10:28:35;8.07;;;3.13;;
84163;SDS011;74288;46.872;7.802;2024-03-22T10:31:01;5.47;;;2.53;;
84163;SDS011;74288;46.872;7.802;2024-03-22T10:33:27;2.60;;;1.20;;
84163;SDS011;74288;46.872;7.802;2024-03-22T10:35:54;5.90;;;1.60;;
84163;SDS011;74288;46.872;7.802;2024-03-22T10:38:21;2.88;;;1.40;;
84163;SDS011;74288;46.872;7.802;2024-03-22T10:40:48;4.65;;;2.00;;
84163;SDS011;74288;46.872;7.802;2024-03-22T10:43:14;4.35;;;1.50;;
84163;SDS011;74288;46.872;7.802;2024-03-22T10:45:40;3.33;;;1.38;;
84163;SDS011;74288;46.872;7.802;2024-03-22T10:48:10;3.80;;;1.30;;
84163;SDS011;74288;46.872;7.802;2024-03-22T10:50:38;3.78;;;1.20;;
84163;SDS011;74288;46.872;7.802;2024-03-22T10:53:06;3.15;;;1.30;;
84163;SDS011;74288;46.872;7.802;2024-03-22T10:55:33;2.97;;;1.20;;
84163;SDS011;74288;46.872;7.802;2024-03-22T10:58:00;3.17;;;1.20;;
84163;SDS011;74288;46.872;7.802;2024-03-22T11:00:29;2.90;;;1.23;;
84163;SDS011;74288;46.872;7.802;2024-03-22T11:02:55;2.45;;;1.10;;
84163;SDS011;74288;46.872;7.802;2024-03-22T11:05:21;2.38;;;1.10;;
84163;SDS011;74288;46.872;7.802;2024-03-22T11:07:48;2.95;;;1.10;;
84163;SDS011;74288;46.872;7.802;2024-03-22T11:10:25;3.13;;;1.08;;
84163;SDS011;74288;46.872;7.802;2024-03-22T11:12:52;3.80;;;1.10;;
84163;SDS011;74288;46.872;7.802;2024-03-22T11:15:17;4.57;;;1.30;;
84163;SDS011;74288;46.872;7.802;2024-03-22T11:17:43;3.00;;;1.20;;
84163;SDS011;74288;46.872;7.802;2024-03-22T11:20:09;3.42;;;1.00;;
84163;SDS011;74288;46.872;7.802;2024-03-22T11:22:37;2.63;;;1.00;;
84163;SDS011;74288;46.872;7.802;2024-03-22T11:25:03;2.73;;;1.13;;
84163;SDS011;74288;46.872;7.802;2024-03-22T11:27:29;2.97;;;1.10;;
84163;SDS011;74288;46.872;7.802;2024-03-22T11:29:55;3.30;;;1.20;;
84163;SDS011;74288;46.872;7.802;2024-03-22T11:32:21;2.33;;;1.00;;
84163;SDS011;74288;46.872;7.802;2024-03-22T11:34:47;2.55;;;1.00;;
84163;SDS011;74288;46.872;7.802;2024-03-22T11:37:13;3.20;;;0.90;;
84163;SDS011;74288;46.872;7.802;2024-03-22T11:39:39;2.22;;;0.93;;
84163;SDS011;74288;46.872;7.802;2024-03-22T11:42:06;2.40;;;0.90;;
84163;SDS011;74288;46.872;7.802;2024-03-22T11:44:32;3.15;;;1.02;;
84163;SDS011;74288;46.872;7.802;2024-03-22T11:46:59;2.42;;;1.08;;
84163;SDS011;74288;46.872;7.802;2024-03-22T11:49:25;2.42;;;1.00;;
84163;SDS011;74288;46.872;7.802;2024-03-22T11:51:52;2.92;;;1.00;;
84163;SDS011;74288;46.872;7.802;2024-03-22T11:54:19;2.50;;;1.15;;
84163;SDS011;74288;46.872;7.802;2024-03-22T11:56:45;3.45;;;0.90;;
84163;SDS011;74288;46.872;7.802;2024-03-22T11:59:12;3.25;;;0.90;;
84163;SDS011;74288;46.872;7.802;2024-03-22T12:01:38;4.72;;;1.00;;
84163;SDS011;74288;46.872;7.802;2024-03-22T12:04:04;2.17;;;1.00;;
84163;SDS011;74288;46.872;7.802;2024-03-22T12:06:33;2.55;;;1.02;;
84163;SDS011;74288;46.872;7.802;2024-03-22T12:08:59;4.95;;;1.10;;
84163;SDS011;74288;46.872;7.802;2024-03-22T12:11:25;3.67;;;1.00;;
84163;SDS011;74288;46.872;7.802;2024-03-22T12:13:51;2.10;;;1.00;;
84163;SDS011;74288;46.872;7.802;2024-03-22T12:16:17;2.23;;;1.00;;
84163;SDS011;74288;46.872;7.802;2024-03-22T12:18:43;3.63;;;1.10;;
84163;SDS011;74288;46.872;7.802;2024-03-22T12:21:09;3.20;;;1.33;;
84163;SDS011;74288;46.872;7.802;2024-03-22T12:23:35;2.55;;;1.30;;
84163;SDS011;74288;46.872;7.802;2024-03-22T12:26:01;3.93;;;1.20;;
84163;SDS011;74288;46.872;7.802;2024-03-22T12:28:27;2.40;;;1.10;;
84163;SDS011;74288;46.872;7.802;2024-03-22T12:30:53;2.58;;;1.10;;
84163;SDS011;74288;46.872;7.802;2024-03-22T12:33:19;3.15;;;1.20;;
84163;SDS011;74288;46.872;7.802;2024-03-22T12:35:45;3.28;;;1.08;;
84163;SDS011;74288;46.872;7.802;2024-03-22T12:38:13;2.22;;;1.00;;
84163;SDS011;74288;46.872;7.802;2024-03-22T12:40:39;2.30;;;1.20;;
84163;SDS011;74288;46.872;7.802;2024-03-22T12:43:05;3.00;;;1.10;;
84163;SDS011;74288;46.872;7.802;2024-03-22T12:45:31;3.30;;;1.00;;
84163;SDS011;74288;46.872;7.802;2024-03-22T12:47:57;5.15;;;1.33;;
84163;SDS011;74288;46.872;7.802;2024-03-22T12:50:24;3.33;;;1.33;;
84163;SDS011;74288;46.872;7.802;2024-03-22T12:52:50;6.00;;;2.95;;
84163;SDS011;74288;46.872;7.802;2024-03-22T12:55:15;6.28;;;2.55;;
84163;SDS011;74288;46.872;7.802;2024-03-22T12:57:41;8.57;;;3.50;;
84163;SDS011;74288;46.872;7.802;2024-03-22T13:00:08;5.38;;;1.90;;
84163;SDS011;74288;46.872;7.802;2024-03-22T13:02:41;3.75;;;1.60;;
84163;SDS011;74288;46.872;7.802;2024-03-22T13:05:07;3.38;;;1.48;;
84163;SDS011;74288;46.872;7.802;2024-03-22T13:07:33;4.05;;;1.50;;
84163;SDS011;74288;46.872;7.802;2024-03-22T13:09:59;3.17;;;1.60;;
84163;SDS011;74288;46.872;7.802;2024-03-22T13:12:28;4.75;;;1.80;;
84163;SDS011;74288;46.872;7.802;2024-03-22T13:14:59;3.53;;;1.50;;
84163;SDS011;74288;46.872;7.802;2024-03-22T13:17:25;3.85;;;1.50;;
84163;SDS011;74288;46.872;7.802;2024-03-22T13:19:51;5.10;;;2.30;;
84163;SDS011;74288;46.872;7.802;2024-03-22T13:22:17;4.77;;;2.00;;
84163;SDS011;74288;46.872;7.802;2024-03-22T13:24:46;4.43;;;1.80;;
84163;SDS011;74288;46.872;7.802;2024-03-22T13:27:13;5.80;;;1.80;;
84163;SDS011;74288;46.872;7.802;2024-03-22T13:29:39;6.00;;;2.00;;
84163;SDS011;74288;46.872;7.802;2024-03-22T13:32:05;4.00;;;1.60;;
84163;SDS011;74288;46.872;7.802;2024-03-22T13:34:33;3.50;;;1.65;;
84163;SDS011;74288;46.872;7.802;2024-03-22T13:36:59;3.75;;;1.73;;
84163;SDS011;74288;46.872;7.802;2024-03-22T13:39:25;4.60;;;1.52;;
84163;SDS011;74288;46.872;7.802;2024-03-22T13:41:51;3.88;;;1.60;;
84163;SDS011;74288;46.872;7.802;2024-03-22T13:44:17;4.22;;;1.52;;
84163;SDS011;74288;46.872;7.802;2024-03-22T13:46:43;5.05;;;1.60;;
84163;SDS011;74288;46.872;7.802;2024-03-22T13:49:13;7.38;;;1.67;;
84163;SDS011;74288;46.872;7.802;2024-03-22T13:51:42;3.70;;;1.40;;
84163;SDS011;74288;46.872;7.802;2024-03-22T13:54:08;4.55;;;1.40;;
84163;SDS011;74288;46.872;7.802;2024-03-22T13:56:35;3.13;;;1.40;;
84163;SDS011;74288;46.872;7.802;2024-03-22T13:59:02;5.45;;;1.60;;
84163;SDS011;74288;46.872;7.802;2024-03-22T14:01:30;3.63;;;1.23;;
84163;SDS011;74288;46.872;7.802;2024-03-22T14:03:56;3.38;;;1.30;;
84163;SDS011;74288;46.872;7.802;2024-03-22T14:06:22;2.53;;;1.33;;
84163;SDS011;74288;46.872;7.802;2024-03-22T14:08:48;4.35;;;1.50;;
84163;SDS011;74288;46.872;7.802;2024-03-22T14:11:14;3.28;;;1.50;;
84163;SDS011;74288;46.872;7.802;2024-03-22T14:13:40;6.00;;;2.43;;
84163;SDS011;74288;46.872;7.802;2024-03-22T14:16:06;7.68;;;2.60;;
84163;SDS011;74288;46.872;7.802;2024-03-22T14:18:34;5.10;;;2.20;;
84163;SDS011;74288;46.872;7.802;2024-03-22T14:21:01;4.85;;;1.70;;
84163;SDS011;74288;46.872;7.802;2024-03-22T14:23:27;9.37;;;3.73;;
84163;SDS011;74288;46.872;7.802;2024-03-22T14:25:54;7.75;;;3.30;;
84163;SDS011;74288;46.872;7.802;2024-03-22T14:28:20;6.00;;;2.92;;
84163;SDS011;74288;46.872;7.802;2024-03-22T14:30:46;5.35;;;2.28;;
84163;SDS011;74288;46.872;7.802;2024-03-22T14:33:12;7.95;;;3.35;;
84163;SDS011;74288;46.872;7.802;2024-03-22T14:35:39;5.47;;;2.43;;
84163;SDS011;74288;46.872;7.802;2024-03-22T14:38:05;5.43;;;1.90;;
84163;SDS011;74288;46.872;7.802;2024-03-22T14:40:31;5.00;;;2.00;;
84163;SDS011;74288;46.872;7.802;2024-03-22T14:43:01;6.43;;;2.78;;